sensor_id;sensor_type;location;lat;lon;timestamp;pressure;altitude;pressure_sealevel;temperature;humidity
55066;BME280;40964;42.114;24.220;2022-10-16T00:02:24;98517.84;;;10.79;76.59
55066;BME280;40964;42.114;24.220;2022-10-16T00:04:49;98531.00;;;10.86;76.34
55066;BME280;40964;42.114;24.220;2022-10-16T00:07:15;98533.06;;;10.90;76.13
55066;BME280;40964;42.114;24.220;2022-10-16T00:09:40;98537.28;;;10.85;76.37
55066;BME280;40964;42.114;24.220;2022-10-16T00:12:06;98535.06;;;10.82;76.22
55066;BME280;40964;42.114;24.220;2022-10-16T00:14:32;98542.94;;;10.75;76.58
55066;BME280;40964;42.114;24.220;2022-10-16T00:16:57;98534.03;;;10.76;76.37
55066;BME280;40964;42.114;24.220;2022-10-16T00:19:23;98531.53;;;10.55;76.00
55066;BME280;40964;42.114;24.220;2022-10-16T00:21:49;98540.00;;;10.43;77.27
55066;BME280;40964;42.114;24.220;2022-10-16T00:24:14;98539.16;;;10.36;77.17
55066;BME280;40964;42.114;24.220;2022-10-16T00:26:40;98545.41;;;10.29;77.03
55066;BME280;40964;42.114;24.220;2022-10-16T00:29:05;98542.28;;;10.18;77.91
55066;BME280;40964;42.114;24.220;2022-10-16T00:31:31;98542.28;;;10.18;78.01
55066;BME280;40964;42.114;24.220;2022-10-16T00:33:57;98530.47;;;10.01;78.38
55066;BME280;40964;42.114;24.220;2022-10-16T00:36:24;98532.91;;;10.03;79.52
55066;BME280;40964;42.114;24.220;2022-10-16T00:38:52;98538.16;;;10.03;79.43
55066;BME280;40964;42.114;24.220;2022-10-16T00:41:22;98537.31;;;9.95;79.64
55066;BME280;40964;42.114;24.220;2022-10-16T00:43:51;98543.97;;;9.91;79.31
55066;BME280;40964;42.114;24.220;2022-10-16T00:51:48;98553.88;;;9.89;79.34
55066;BME280;40964;42.114;24.220;2022-10-16T00:54:19;98566.00;;;9.90;79.37
55066;BME280;40964;42.114;24.220;2022-10-16T00:56:46;98565.97;;;9.84;79.76
55066;BME280;40964;42.114;24.220;2022-10-16T00:59:33;98577.47;;;9.83;79.77
55066;BME280;40964;42.114;24.220;2022-10-16T01:02:00;98579.47;;;9.81;80.08
55066;BME280;40964;42.114;24.220;2022-10-16T01:04:30;98581.91;;;9.82;80.16
55066;BME280;40964;42.114;24.220;2022-10-16T01:09:40;98585.34;;;9.83;80.13
55066;BME280;40964;42.114;24.220;2022-10-16T01:12:16;98587.59;;;9.86;79.79
55066;BME280;40964;42.114;24.220;2022-10-16T01:17:16;98588.19;;;9.88;80.20
55066;BME280;40964;42.114;24.220;2022-10-16T01:20:11;98584.97;;;9.86;79.98
55066;BME280;40964;42.114;24.220;2022-10-16T01:28:35;98586.72;;;9.79;79.73
55066;BME280;40964;42.114;24.220;2022-10-16T01:31:15;98586.50;;;9.74;79.27
55066;BME280;40964;42.114;24.220;2022-10-16T01:33:51;98588.13;;;9.75;79.69
55066;BME280;40964;42.114;24.220;2022-10-16T01:36:24;98583.63;;;9.68;79.68
55066;BME280;40964;42.114;24.220;2022-10-16T01:38:52;98583.44;;;9.70;80.15
55066;BME280;40964;42.114;24.220;2022-10-16T01:41:24;98591.69;;;9.67;79.06
55066;BME280;40964;42.114;24.220;2022-10-16T01:43:57;98599.38;;;9.68;78.90
55066;BME280;40964;42.114;24.220;2022-10-16T01:46:27;98598.97;;;9.65;79.52
55066;BME280;40964;42.114;24.220;2022-10-16T01:48:54;98589.06;;;9.67;80.15
55066;BME280;40964;42.114;24.220;2022-10-16T01:51:21;98594.72;;;9.64;80.39
55066;BME280;40964;42.114;24.220;2022-10-16T01:53:53;98593.25;;;9.61;80.57
55066;BME280;40964;42.114;24.220;2022-10-16T01:56:21;98582.94;;;9.60;80.24
55066;BME280;40964;42.114;24.220;2022-10-16T01:58:55;98579.09;;;9.56;80.16
55066;BME280;40964;42.114;24.220;2022-10-16T02:01:25;98590.28;;;9.64;79.90
55066;BME280;40964;42.114;24.220;2022-10-16T02:03:53;98595.72;;;9.63;80.14
55066;BME280;40964;42.114;24.220;2022-10-16T02:06:21;98589.66;;;9.62;80.10
55066;BME280;40964;42.114;24.220;2022-10-16T02:08:47;98586.22;;;9.62;79.90
55066;BME280;40964;42.114;24.220;2022-10-16T02:11:13;98593.25;;;9.61;80.31
55066;BME280;40964;42.114;24.220;2022-10-16T02:13:42;98601.78;;;9.63;79.86
55066;BME280;40964;42.114;24.220;2022-10-16T02:16:11;98601.53;;;9.58;80.03
55066;BME280;40964;42.114;24.220;2022-10-16T02:18:38;98596.06;;;9.53;79.90
55066;BME280;40964;42.114;24.220;2022-10-16T02:21:21;98615.28;;;9.60;79.71
55066;BME280;40964;42.114;24.220;2022-10-16T02:24:08;98599.28;;;9.55;79.51
55066;BME280;40964;42.114;24.220;2022-10-16T02:26:51;98601.25;;;9.47;79.70
55066;BME280;40964;42.114;24.220;2022-10-16T02:29:23;98606.56;;;9.53;80.20
55066;BME280;40964;42.114;24.220;2022-10-16T02:31:55;98604.28;;;9.50;80.03
55066;BME280;40964;42.114;24.220;2022-10-16T02:34:24;98601.25;;;9.47;79.82
55066;BME280;40964;42.114;24.220;2022-10-16T02:36:52;98599.44;;;9.47;80.18
55066;BME280;40964;42.114;24.220;2022-10-16T02:39:19;98604.06;;;9.45;80.30
55066;BME280;40964;42.114;24.220;2022-10-16T02:41:45;98603.25;;;9.45;80.25
55066;BME280;40964;42.114;24.220;2022-10-16T02:44:11;98606.88;;;9.44;79.74
55066;BME280;40964;42.114;24.220;2022-10-16T02:46:36;98599.13;;;9.35;79.99
55066;BME280;40964;42.114;24.220;2022-10-16T02:49:02;98606.81;;;9.37;79.89
55066;BME280;40964;42.114;24.220;2022-10-16T02:51:27;98607.97;;;9.34;80.17
55066;BME280;40964;42.114;24.220;2022-10-16T02:53:53;98613.00;;;9.29;80.29
55066;BME280;40964;42.114;24.220;2022-10-16T02:56:18;98615.56;;;9.23;80.77
55066;BME280;40964;42.114;24.220;2022-10-16T02:58:44;98613.53;;;9.25;80.61
55066;BME280;40964;42.114;24.220;2022-10-16T03:01:09;98627.63;;;9.17;80.65
55066;BME280;40964;42.114;24.220;2022-10-16T03:03:35;98628.56;;;9.09;80.75
55066;BME280;40964;42.114;24.220;2022-10-16T03:06:01;98625.53;;;8.91;80.77
55066;BME280;40964;42.114;24.220;2022-10-16T03:08:26;98604.16;;;8.73;81.45
55066;BME280;40964;42.114;24.220;2022-10-16T03:10:52;98637.03;;;8.90;81.41
55066;BME280;40964;42.114;24.220;2022-10-16T03:13:17;98622.94;;;8.76;81.13
55066;BME280;40964;42.114;24.220;2022-10-16T03:15:45;98632.88;;;8.81;81.15
55066;BME280;40964;42.114;24.220;2022-10-16T03:18:11;98631.88;;;8.82;80.90
55066;BME280;40964;42.114;24.220;2022-10-16T03:20:36;98638.47;;;8.78;81.83
55066;BME280;40964;42.114;24.220;2022-10-16T03:23:02;98645.81;;;8.68;81.92
55066;BME280;40964;42.114;24.220;2022-10-16T03:25:28;98644.22;;;8.52;82.55
55066;BME280;40964;42.114;24.220;2022-10-16T03:27:53;98639.19;;;8.36;83.26
55066;BME280;40964;42.114;24.220;2022-10-16T03:30:19;98647.81;;;8.51;83.21
55066;BME280;40964;42.114;24.220;2022-10-16T03:32:44;98631.28;;;8.50;82.44
55066;BME280;40964;42.114;24.220;2022-10-16T03:35:10;98645.69;;;8.55;82.57
55066;BME280;40964;42.114;24.220;2022-10-16T03:37:36;98644.69;;;8.56;81.84
55066;BME280;40964;42.114;24.220;2022-10-16T03:40:02;98640.16;;;8.49;82.74
55066;BME280;40964;42.114;24.220;2022-10-16T03:42:28;98643.25;;;8.38;82.79
55066;BME280;40964;42.114;24.220;2022-10-16T03:44:54;98645.53;;;8.33;83.28
55066;BME280;40964;42.114;24.220;2022-10-16T03:47:19;98644.72;;;8.33;84.24
55066;BME280;40964;42.114;24.220;2022-10-16T03:49:47;98644.28;;;8.29;84.35
55066;BME280;40964;42.114;24.220;2022-10-16T03:52:13;98635.22;;;8.17;84.29
55066;BME280;40964;42.114;24.220;2022-10-16T03:54:39;98645.44;;;8.26;84.76
55066;BME280;40964;42.114;24.220;2022-10-16T03:57:04;98637.78;;;8.25;84.85
55066;BME280;40964;42.114;24.220;2022-10-16T03:59:30;98642.78;;;8.35;84.59
55066;BME280;40964;42.114;24.220;2022-10-16T04:01:56;98645.03;;;8.38;84.98
55066;BME280;40964;42.114;24.220;2022-10-16T04:04:21;98643.88;;;8.40;84.83
55066;BME280;40964;42.114;24.220;2022-10-16T04:06:47;98637.81;;;8.40;84.90
55066;BME280;40964;42.114;24.220;2022-10-16T04:09:13;98630.38;;;8.43;84.38
55066;BME280;40964;42.114;24.220;2022-10-16T04:11:38;98644.97;;;8.46;84.25
55066;BME280;40964;42.114;24.220;2022-10-16T04:14:04;98635.28;;;8.46;83.98
55066;BME280;40964;42.114;24.220;2022-10-16T04:16:29;98641.69;;;8.44;83.98
55066;BME280;40964;42.114;24.220;2022-10-16T04:18:55;98637.81;;;8.40;83.77
55066;BME280;40964;42.114;24.220;2022-10-16T04:21:20;98638.88;;;8.31;83.58
55066;BME280;40964;42.114;24.220;2022-10-16T04:23:46;98644.06;;;8.39;82.89
55066;BME280;40964;42.114;24.220;2022-10-16T04:26:11;98646.50;;;8.40;82.61
55066;BME280;40964;42.114;24.220;2022-10-16T04:28:37;98651.53;;;8.42;82.60
55066;BME280;40964;42.114;24.220;2022-10-16T04:31:06;98654.16;;;8.42;82.62
55066;BME280;40964;42.114;24.220;2022-10-16T04:33:32;98635.56;;;8.37;82.73
55066;BME280;40964;42.114;24.220;2022-10-16T04:35:58;98650.78;;;8.33;82.81
55066;BME280;40964;42.114;24.220;2022-10-16T04:38:24;98613.72;;;8.07;83.29
55066;BME280;40964;42.114;24.220;2022-10-16T04:40:50;98634.25;;;8.18;83.62
55066;BME280;40964;42.114;24.220;2022-10-16T04:43:15;98656.31;;;8.23;83.31
55066;BME280;40964;42.114;24.220;2022-10-16T04:45:41;98663.09;;;8.18;83.37
55066;BME280;40964;42.114;24.220;2022-10-16T04:48:06;98661.44;;;8.17;83.49
55066;BME280;40964;42.114;24.220;2022-10-16T04:50:32;98667.03;;;8.14;82.86
55066;BME280;40964;42.114;24.220;2022-10-16T04:52:57;98660.44;;;8.03;82.80
55066;BME280;40964;42.114;24.220;2022-10-16T04:55:22;98664.25;;;8.01;82.87
55066;BME280;40964;42.114;24.220;2022-10-16T04:57:48;98677.59;;;8.06;83.11
55066;BME280;40964;42.114;24.220;2022-10-16T05:00:13;98677.59;;;8.06;83.19
55066;BME280;40964;42.114;24.220;2022-10-16T05:02:39;98682.66;;;8.07;83.28
55066;BME280;40964;42.114;24.220;2022-10-16T05:05:05;98678.16;;;8.01;83.29
55066;BME280;40964;42.114;24.220;2022-10-16T05:07:30;98682.50;;;8.09;83.96
55066;BME280;40964;42.114;24.220;2022-10-16T05:09:56;98654.56;;;8.01;83.76
55066;BME280;40964;42.114;24.220;2022-10-16T05:12:21;98691.34;;;8.22;84.28
55066;BME280;40964;42.114;24.220;2022-10-16T05:14:47;98688.84;;;8.29;84.22
55066;BME280;40964;42.114;24.220;2022-10-16T05:17:12;98698.53;;;8.43;83.49
55066;BME280;40964;42.114;24.220;2022-10-16T05:19:38;98705.69;;;8.49;83.23
55066;BME280;40964;42.114;24.220;2022-10-16T05:22:03;98699.19;;;8.45;84.20
55066;BME280;40964;42.114;24.220;2022-10-16T05:24:29;98709.22;;;8.42;84.48
55066;BME280;40964;42.114;24.220;2022-10-16T05:26:54;98716.81;;;8.51;84.34
55066;BME280;40964;42.114;24.220;2022-10-16T05:29:20;98726.75;;;8.56;83.85
55066;BME280;40964;42.114;24.220;2022-10-16T05:31:45;98716.53;;;8.46;84.23
55066;BME280;40964;42.114;24.220;2022-10-16T05:34:11;98716.19;;;8.49;84.11
55066;BME280;40964;42.114;24.220;2022-10-16T05:36:36;98721.06;;;8.67;83.66
55066;BME280;40964;42.114;24.220;2022-10-16T05:39:02;98722.16;;;8.73;83.79
55066;BME280;40964;42.114;24.220;2022-10-16T05:41:28;98726.47;;;8.80;83.97
55066;BME280;40964;42.114;24.220;2022-10-16T05:43:53;98725.03;;;8.78;84.88
55066;BME280;40964;42.114;24.220;2022-10-16T05:46:19;98731.72;;;8.80;85.12
55066;BME280;40964;42.114;24.220;2022-10-16T05:48:44;98736.16;;;8.80;85.49
55066;BME280;40964;42.114;24.220;2022-10-16T05:51:12;98740.78;;;8.93;85.18
55066;BME280;40964;42.114;24.220;2022-10-16T05:53:38;98747.38;;;9.03;84.98
55066;BME280;40964;42.114;24.220;2022-10-16T05:56:05;98753.41;;;9.04;85.93
55066;BME280;40964;42.114;24.220;2022-10-16T05:58:35;98748.44;;;8.94;86.36
55066;BME280;40964;42.114;24.220;2022-10-16T06:01:12;98754.50;;;8.95;85.20
55066;BME280;40964;42.114;24.220;2022-10-16T06:03:39;98760.56;;;9.10;85.62
55066;BME280;40964;42.114;24.220;2022-10-16T06:06:15;98744.53;;;9.05;86.05
55066;BME280;40964;42.114;24.220;2022-10-16T06:08:43;98763.44;;;9.15;86.57
55066;BME280;40964;42.114;24.220;2022-10-16T06:11:14;98763.00;;;9.12;87.02
55066;BME280;40964;42.114;24.220;2022-10-16T06:13:40;98756.03;;;9.19;86.99
55066;BME280;40964;42.114;24.220;2022-10-16T06:16:11;98767.78;;;9.23;86.19
55066;BME280;40964;42.114;24.220;2022-10-16T06:18:38;98769.88;;;9.27;84.60
55066;BME280;40964;42.114;24.220;2022-10-16T06:21:12;98763.13;;;9.39;85.08
55066;BME280;40964;42.114;24.220;2022-10-16T06:23:39;98772.53;;;9.49;84.08
55066;BME280;40964;42.114;24.220;2022-10-16T06:26:11;98772.34;;;9.50;83.65
55066;BME280;40964;42.114;24.220;2022-10-16T06:28:37;98775.63;;;9.74;82.48
55066;BME280;40964;42.114;24.220;2022-10-16T06:31:04;98784.28;;;9.89;82.86
55066;BME280;40964;42.114;24.220;2022-10-16T06:33:30;98779.13;;;10.02;82.25
55066;BME280;40964;42.114;24.220;2022-10-16T06:36:06;98789.91;;;10.07;81.61
55066;BME280;40964;42.114;24.220;2022-10-16T06:38:33;98788.84;;;10.23;81.44
55066;BME280;40964;42.114;24.220;2022-10-16T06:40:59;98789.72;;;10.30;80.60
55066;BME280;40964;42.114;24.220;2022-10-16T06:43:25;98782.75;;;10.44;81.60
55066;BME280;40964;42.114;24.220;2022-10-16T06:45:54;98791.75;;;10.56;80.74
55066;BME280;40964;42.114;24.220;2022-10-16T06:48:21;98788.91;;;10.58;80.53
55066;BME280;40964;42.114;24.220;2022-10-16T06:53:26;98785.38;;;10.72;80.04
55066;BME280;40964;42.114;24.220;2022-10-16T06:55:52;98794.34;;;10.84;79.41
55066;BME280;40964;42.114;24.220;2022-10-16T06:58:18;98792.63;;;10.98;79.10
55066;BME280;40964;42.114;24.220;2022-10-16T07:00:44;98796.31;;;11.10;78.12
55066;BME280;40964;42.114;24.220;2022-10-16T07:03:09;98797.78;;;11.19;78.01
55066;BME280;40964;42.114;24.220;2022-10-16T07:05:39;98802.53;;;11.37;78.34
55066;BME280;40964;42.114;24.220;2022-10-16T07:08:05;98802.06;;;11.27;77.33
55066;BME280;40964;42.114;24.220;2022-10-16T07:10:34;98807.94;;;11.29;77.16
55066;BME280;40964;42.114;24.220;2022-10-16T07:12:59;98804.75;;;11.33;77.11
55066;BME280;40964;42.114;24.220;2022-10-16T07:15:26;98811.63;;;11.41;76.76
55066;BME280;40964;42.114;24.220;2022-10-16T07:17:51;98815.75;;;11.50;75.55
55066;BME280;40964;42.114;24.220;2022-10-16T07:20:17;98814.56;;;11.59;75.73
55066;BME280;40964;42.114;24.220;2022-10-16T07:22:42;98817.03;;;11.74;76.67
55066;BME280;40964;42.114;24.220;2022-10-16T07:25:08;98820.13;;;11.84;74.27
55066;BME280;40964;42.114;24.220;2022-10-16T07:27:33;98808.63;;;11.99;73.44
55066;BME280;40964;42.114;24.220;2022-10-16T07:29:59;98812.47;;;11.96;72.06
55066;BME280;40964;42.114;24.220;2022-10-16T07:32:25;98808.19;;;12.02;72.28
55066;BME280;40964;42.114;24.220;2022-10-16T07:34:51;98822.63;;;12.19;70.94
55066;BME280;40964;42.114;24.220;2022-10-16T07:37:17;98809.47;;;12.32;70.22
55066;BME280;40964;42.114;24.220;2022-10-16T07:39:42;98811.50;;;12.37;69.73
55066;BME280;40964;42.114;24.220;2022-10-16T07:42:08;98820.22;;;12.64;69.99
55066;BME280;40964;42.114;24.220;2022-10-16T07:44:33;98818.16;;;12.72;70.08
55066;BME280;40964;42.114;24.220;2022-10-16T07:46:59;98817.97;;;12.87;68.56
55066;BME280;40964;42.114;24.220;2022-10-16T07:49:24;98804.34;;;12.97;70.03
55066;BME280;40964;42.114;24.220;2022-10-16T07:51:50;98813.06;;;13.04;68.78
55066;BME280;40964;42.114;24.220;2022-10-16T07:54:15;98821.38;;;13.07;68.78
55066;BME280;40964;42.114;24.220;2022-10-16T07:56:41;98821.56;;;13.13;68.52
55066;BME280;40964;42.114;24.220;2022-10-16T07:59:06;98822.78;;;13.30;68.79
55066;BME280;40964;42.114;24.220;2022-10-16T08:01:32;98820.53;;;13.27;66.85
55066;BME280;40964;42.114;24.220;2022-10-16T08:03:57;98820.66;;;13.45;67.11
55066;BME280;40964;42.114;24.220;2022-10-16T08:06:22;98787.41;;;13.31;68.37
55066;BME280;40964;42.114;24.220;2022-10-16T08:08:48;98823.84;;;13.67;66.87
55066;BME280;40964;42.114;24.220;2022-10-16T08:11:14;98827.78;;;13.89;66.75
55066;BME280;40964;42.114;24.220;2022-10-16T08:13:40;98823.75;;;13.80;65.68
55066;BME280;40964;42.114;24.220;2022-10-16T08:16:06;98818.09;;;13.77;66.18
55066;BME280;40964;42.114;24.220;2022-10-16T08:18:42;98817.03;;;13.84;66.50
55066;BME280;40964;42.114;24.220;2022-10-16T08:21:14;98822.19;;;14.04;66.35
55066;BME280;40964;42.114;24.220;2022-10-16T08:23:40;98822.16;;;14.36;66.42
55066;BME280;40964;42.114;24.220;2022-10-16T08:26:07;98821.81;;;14.32;64.98
55066;BME280;40964;42.114;24.220;2022-10-16T08:28:34;98814.50;;;14.28;65.14
55066;BME280;40964;42.114;24.220;2022-10-16T08:31:14;98822.69;;;14.51;64.56
55066;BME280;40964;42.114;24.220;2022-10-16T08:33:41;98823.97;;;14.42;64.25
55066;BME280;40964;42.114;24.220;2022-10-16T08:36:09;98821.84;;;14.57;63.65
55066;BME280;40964;42.114;24.220;2022-10-16T08:38:35;98812.00;;;14.64;64.87
55066;BME280;40964;42.114;24.220;2022-10-16T08:49:11;98803.44;;;14.87;62.77
55066;BME280;40964;42.114;24.220;2022-10-16T08:51:39;98797.38;;;14.80;61.76
55066;BME280;40964;42.114;24.220;2022-10-16T08:54:08;98810.00;;;14.85;62.08
55066;BME280;40964;42.114;24.220;2022-10-16T08:56:37;98807.63;;;14.95;62.17
55066;BME280;40964;42.114;24.220;2022-10-16T08:59:06;98813.19;;;15.12;60.41
55066;BME280;40964;42.114;24.220;2022-10-16T09:01:44;98804.41;;;15.11;61.91
55066;BME280;40964;42.114;24.220;2022-10-16T09:07:02;98803.88;;;15.39;59.95
55066;BME280;40964;42.114;24.220;2022-10-16T09:22:40;98797.31;;;15.90;59.02
55066;BME280;40964;42.114;24.220;2022-10-16T09:25:14;98811.78;;;16.06;58.95
55066;BME280;40964;42.114;24.220;2022-10-16T09:27:40;98794.75;;;16.13;58.59
55066;BME280;40964;42.114;24.220;2022-10-16T09:30:15;98797.78;;;16.40;55.56
55066;BME280;40964;42.114;24.220;2022-10-16T09:32:43;98791.69;;;16.52;54.97
55066;BME280;40964;42.114;24.220;2022-10-16T09:38:01;98796.50;;;16.43;55.02
55066;BME280;40964;42.114;24.220;2022-10-16T09:40:31;98792.50;;;16.64;54.98
55066;BME280;40964;42.114;24.220;2022-10-16T09:43:02;98790.34;;;16.84;54.65
55066;BME280;40964;42.114;24.220;2022-10-16T09:45:28;98778.09;;;16.83;55.51
55066;BME280;40964;42.114;24.220;2022-10-16T09:47:54;98782.25;;;16.91;53.73
55066;BME280;40964;42.114;24.220;2022-10-16T09:50:24;98792.38;;;17.06;53.36
55066;BME280;40964;42.114;24.220;2022-10-16T09:53:03;98792.13;;;17.07;52.16
55066;BME280;40964;42.114;24.220;2022-10-16T09:55:28;98788.19;;;17.21;51.66
55066;BME280;40964;42.114;24.220;2022-10-16T09:57:54;98788.72;;;17.47;53.03
55066;BME280;40964;42.114;24.220;2022-10-16T10:00:21;98784.16;;;17.71;49.25
55066;BME280;40964;42.114;24.220;2022-10-16T10:02:47;98789.66;;;17.81;49.63
55066;BME280;40964;42.114;24.220;2022-10-16T10:05:24;98789.75;;;17.46;50.65
55066;BME280;40964;42.114;24.220;2022-10-16T10:08:01;98785.28;;;17.75;51.37
55066;BME280;40964;42.114;24.220;2022-10-16T10:10:34;98778.91;;;17.76;50.39
55066;BME280;40964;42.114;24.220;2022-10-16T10:13:02;98773.94;;;17.68;51.28
55066;BME280;40964;42.114;24.220;2022-10-16T10:15:33;98762.97;;;17.64;51.26
55066;BME280;40964;42.114;24.220;2022-10-16T10:18:00;98770.69;;;17.77;49.90
55066;BME280;40964;42.114;24.220;2022-10-16T10:20:33;98769.34;;;17.92;49.88
55066;BME280;40964;42.114;24.220;2022-10-16T10:23:00;98769.97;;;17.82;49.54
55066;BME280;40964;42.114;24.220;2022-10-16T10:25:45;98762.44;;;18.07;48.13
55066;BME280;40964;42.114;24.220;2022-10-16T10:28:34;98766.06;;;18.18;49.27
55066;BME280;40964;42.114;24.220;2022-10-16T10:31:17;98755.16;;;18.53;47.68
55066;BME280;40964;42.114;24.220;2022-10-16T11:00:42;98724.81;;;18.93;45.55
55066;BME280;40964;42.114;24.220;2022-10-16T11:08:51;98713.34;;;18.92;45.76
55066;BME280;40964;42.114;24.220;2022-10-16T11:11:24;98711.56;;;18.98;44.42
55066;BME280;40964;42.114;24.220;2022-10-16T11:13:56;98712.53;;;19.14;43.56
55066;BME280;40964;42.114;24.220;2022-10-16T11:16:39;98705.84;;;19.11;44.34
55066;BME280;40964;42.114;24.220;2022-10-16T11:19:26;98701.81;;;19.09;43.52
55066;BME280;40964;42.114;24.220;2022-10-16T11:27:08;98699.97;;;18.87;42.27
55066;BME280;40964;42.114;24.220;2022-10-16T11:29:35;98707.88;;;18.82;44.44
55066;BME280;40964;42.114;24.220;2022-10-16T11:32:16;98703.81;;;18.96;43.96
55066;BME280;40964;42.114;24.220;2022-10-16T11:34:49;98702.00;;;19.02;42.55
55066;BME280;40964;42.114;24.220;2022-10-16T11:39:43;98700.25;;;19.35;42.76
55066;BME280;40964;42.114;24.220;2022-10-16T11:47:34;98698.56;;;19.55;40.61
55066;BME280;40964;42.114;24.220;2022-10-16T11:50:35;98692.69;;;19.53;39.70
55066;BME280;40964;42.114;24.220;2022-10-16T11:53:23;98693.25;;;19.82;42.18
55066;BME280;40964;42.114;24.220;2022-10-16T11:55:52;98688.97;;;19.81;40.80
55066;BME280;40964;42.114;24.220;2022-10-16T12:03:43;98695.50;;;19.96;43.50
55066;BME280;40964;42.114;24.220;2022-10-16T12:08:40;98683.56;;;20.46;40.65
55066;BME280;40964;42.114;24.220;2022-10-16T12:14:59;98693.91;;;20.79;41.90
55066;BME280;40964;42.114;24.220;2022-10-16T12:17:22;98704.00;;;20.62;39.31
55066;BME280;40964;42.114;24.220;2022-10-16T12:20:00;98710.66;;;20.59;38.63
55066;BME280;40964;42.114;24.220;2022-10-16T12:22:29;98707.69;;;20.56;38.54
55066;BME280;40964;42.114;24.220;2022-10-16T12:24:56;98711.72;;;20.58;37.95
55066;BME280;40964;42.114;24.220;2022-10-16T12:27:30;98700.47;;;20.51;39.44
55066;BME280;40964;42.114;24.220;2022-10-16T12:30:04;98702.41;;;20.66;39.15
55066;BME280;40964;42.114;24.220;2022-10-16T12:32:34;98693.06;;;20.68;39.25
55066;BME280;40964;42.114;24.220;2022-10-16T12:35:01;98691.97;;;20.64;38.48
55066;BME280;40964;42.114;24.220;2022-10-16T12:37:37;98697.66;;;20.83;38.57
55066;BME280;40964;42.114;24.220;2022-10-16T12:42:49;98695.50;;;20.75;37.84
55066;BME280;40964;42.114;24.220;2022-10-16T12:47:52;98702.56;;;20.12;39.60
55066;BME280;40964;42.114;24.220;2022-10-16T12:52:59;98701.34;;;19.93;38.13
55066;BME280;40964;42.114;24.220;2022-10-16T12:55:26;98700.31;;;19.99;38.17
55066;BME280;40964;42.114;24.220;2022-10-16T12:58:09;98708.13;;;20.05;39.41
55066;BME280;40964;42.114;24.220;2022-10-16T13:00:51;98711.81;;;20.36;38.69
55066;BME280;40964;42.114;24.220;2022-10-16T13:03:43;98719.28;;;20.34;37.43
55066;BME280;40964;42.114;24.220;2022-10-16T13:06:25;98718.19;;;20.30;36.95
55066;BME280;40964;42.114;24.220;2022-10-16T13:12:31;98720.03;;;20.30;37.21
55066;BME280;40964;42.114;24.220;2022-10-16T13:23:18;98715.84;;;20.76;37.37
55066;BME280;40964;42.114;24.220;2022-10-16T13:28:32;98720.28;;;20.60;37.80
55066;BME280;40964;42.114;24.220;2022-10-16T13:31:00;98708.28;;;20.26;37.50
55066;BME280;40964;42.114;24.220;2022-10-16T13:33:45;98717.16;;;20.36;38.38
55066;BME280;40964;42.114;24.220;2022-10-16T13:36:22;98719.75;;;20.26;38.89
55066;BME280;40964;42.114;24.220;2022-10-16T13:38:48;98710.72;;;20.32;37.59
55066;BME280;40964;42.114;24.220;2022-10-16T13:41:17;98723.50;;;20.25;37.37
55066;BME280;40964;42.114;24.220;2022-10-16T13:43:46;98722.88;;;20.13;37.78
55066;BME280;40964;42.114;24.220;2022-10-16T13:46:15;98723.91;;;20.07;37.66
55066;BME280;40964;42.114;24.220;2022-10-16T13:48:41;98722.75;;;19.98;38.18
55066;BME280;40964;42.114;24.220;2022-10-16T13:51:15;98722.22;;;19.96;39.18
55066;BME280;40964;42.114;24.220;2022-10-16T13:53:42;98724.19;;;19.78;38.41
55066;BME280;40964;42.114;24.220;2022-10-16T13:56:13;98727.94;;;19.82;38.49
55066;BME280;40964;42.114;24.220;2022-10-16T13:58:39;98722.63;;;19.82;39.13
55066;BME280;40964;42.114;24.220;2022-10-16T14:01:16;98729.13;;;19.65;39.21
55066;BME280;40964;42.114;24.220;2022-10-16T14:03:42;98723.84;;;19.48;38.09
55066;BME280;40964;42.114;24.220;2022-10-16T14:06:13;98725.31;;;19.34;38.46
55066;BME280;40964;42.114;24.220;2022-10-16T14:08:44;98730.28;;;19.25;39.16
55066;BME280;40964;42.114;24.220;2022-10-16T14:11:10;98731.56;;;19.22;40.34
55066;BME280;40964;42.114;24.220;2022-10-16T14:13:45;98734.41;;;18.94;44.25
55066;BME280;40964;42.114;24.220;2022-10-16T14:16:18;98739.41;;;18.68;45.72
55066;BME280;40964;42.114;24.220;2022-10-16T14:18:57;98738.63;;;18.51;46.35
55066;BME280;40964;42.114;24.220;2022-10-16T14:21:25;98716.19;;;18.30;46.72
55066;BME280;40964;42.114;24.220;2022-10-16T14:23:51;98741.38;;;18.23;46.98
55066;BME280;40964;42.114;24.220;2022-10-16T14:26:22;98740.34;;;18.07;47.34
55066;BME280;40964;42.114;24.220;2022-10-16T14:28:48;98732.88;;;17.92;47.16
55066;BME280;40964;42.114;24.220;2022-10-16T14:33:46;98732.44;;;17.38;49.60
55066;BME280;40964;42.114;24.220;2022-10-16T14:36:13;98743.84;;;17.10;49.29
55066;BME280;40964;42.114;24.220;2022-10-16T14:38:41;98735.47;;;16.78;50.26
55066;BME280;40964;42.114;24.220;2022-10-16T14:41:07;98747.13;;;16.54;51.39
55066;BME280;40964;42.114;24.220;2022-10-16T14:43:38;98744.47;;;16.30;52.09
55066;BME280;40964;42.114;24.220;2022-10-16T14:46:12;98755.41;;;16.10;51.53
55066;BME280;40964;42.114;24.220;2022-10-16T14:48:42;98746.00;;;15.84;53.26
55066;BME280;40964;42.114;24.220;2022-10-16T14:51:18;98745.47;;;15.64;52.00
55066;BME280;40964;42.114;24.220;2022-10-16T14:53:44;98733.41;;;15.50;52.68
55066;BME280;40964;42.114;24.220;2022-10-16T14:56:42;98749.47;;;15.37;53.50
55066;BME280;40964;42.114;24.220;2022-10-16T14:59:17;98748.47;;;15.19;52.93
55066;BME280;40964;42.114;24.220;2022-10-16T15:01:45;98751.63;;;15.10;52.95
55066;BME280;40964;42.114;24.220;2022-10-16T15:04:12;98748.41;;;14.89;52.65
55066;BME280;40964;42.114;24.220;2022-10-16T15:06:38;98750.97;;;14.77;52.33
55066;BME280;40964;42.114;24.220;2022-10-16T15:09:03;98755.66;;;14.57;52.32
55066;BME280;40964;42.114;24.220;2022-10-16T15:11:31;98753.53;;;14.47;52.43
55066;BME280;40964;42.114;24.220;2022-10-16T15:13:57;98751.75;;;14.35;52.48